Portada
METAR-TAF:

METAR-TAF

Aeropuertos :

Aeropuerto de Andahuaylas

Andahuaylas, Perú

latitud: 13-43S, longitud: 073-21W, altitud: 3444 m

Observación

El informe se hizo hace 23 minutos, a las 18:00 UTC
Viento 11 kt del norte-noreste
Temperatura 18°C
Humedad 49%
Presión 1035 hPa
Visibilidad 10 km o más
Nubes dispersas a una altura de 1200 ft
Nubes dispersas a una altura de 6000 ft

METAR: SPHY 271800Z 03011KT 9999 SCT012 SCT060 18/07 Q1035 RMK BIRD HAZARD RWY03/21 PP000

Hora: 13:23 (18:23 UTC)

Pronóstico

El informe se hizo hace 1 hora y 23 minutos, a las 17:00 UTC
Pronóstico válido del 27 a las 18 UTC al 28 a las 18 UTC
Viento 10 kt del norte
Visibilidad 10 km o más
Nubes dispersas a una altura de 1200 ft
Nubes dispersas a una altura de 6000 ft
Evolucionando progresivamente
del 27 a las 21 UTC al 27 a las 23 UTC
Viento kt del norte

TAF: SPHY 271700Z 2718/2818 01010KT 9999 SCT012 SCT060 TX18/2720Z TN04/2811Z BECMG 2721/2723 00000KT

Observaciones y pronósticos meteorológicos de más de 4000 aeropuertos (mensajes METAR y TAF).

Los puntos amarillos y rojos representan las estaciones disponibles.

Ponga el ratón en el punto deseado para ver el nombre de la estación.

Haga clic para ver las observaciones y los pronósticos meteorológicos.

Para cambiar el mapa : haga clic en los botones verdes con una cruz de color negro para hacer un zoom, en el botón verde con un guión para alejar o en las flechas verdes para mapas adyacentes.


METAR-TAF: